Upstream stations:
Downstream station:
SHEF ID: WCOM7 Spring R A - Waco MO
STATION TYPE: Stream Gauge
Regulating: Stage = 19.00, Flow = 17743
PRECIP STAGE RIV-FLOW BAT-LOAD
in ft cfs volt
Ccp-Rev Ccp-Rev Ccp-Rev Ccp-Rev
(US/Central)
03/29 00:00 0.00 3.27 1032 12.83
03/29 01:00 0.00 3.22 998 12.77
03/29 02:00 0.00 3.23 1005 12.77
03/29 03:00 0.00 3.26 1025 12.77
03/29 04:00 0.00 3.23 1005 12.71
03/29 05:00 0.00 3.23 1005 12.71
03/29 06:00 0.00 3.25 1019 12.65
03/29 07:00 0.00 3.25 1019 12.65
03/29 08:00 0.00 3.19 978 12.65
03/29 09:00 0.00 3.22 998 12.71
03/29 10:00 0.00 3.22 998 13.30
03/29 11:00 0.00 3.21 992 14.12
03/29 12:00 0.00 3.16 959 14.12
03/29 13:00 0.00 3.19 978 14.06
03/29 14:00 0.00 3.19 978 14.06
03/29 15:00 0.00 3.19 978 13.94
03/29 16:00 0.00 3.17 965 13.94
03/29 17:00 0.00 3.16 959 13.71
03/29 18:00 0.00 3.19 978 13.71
03/29 19:00 0.00 3.17 965 13.71
03/29 20:00 0.00 3.14 946 13.30
03/29 21:00 0.00 3.15 952 13.00
03/29 22:00 0.00 3.14 946 12.89
03/29 23:00 0.00 3.10 920 12.83